Terminal Aerodrome Forecast
Issued by NWS

Home | Current Version | Previous Version | Text Only | Print | Product List | Glossary On
Versions: 1 2 3 4 5 6 7 8 9 10 11 12 13 14 15 16 17 18 19 20 21
222
FTUS44 KSJT 290421 AAA
TAFSOA
TAF AMD
KSOA 290421Z 2904/2924 15008KT P6SM BKN018
      TEMPO 2904/2906 6SM HZ SCT018
     FM290600 16009KT P6SM BKN015
     FM291200 18009KT P6SM BKN010
     FM291500 27010KT P6SM SCT250=

USA.gov is the U.S. government's official web portal to all federal, state and local government web resources and services.